Terminal Aerodrome Forecast
Issued by NWS

Home | Current Version | Previous Version | Text Only | Print | Product List | Glossary On
Versions: 1 2 3 4 5 6 7 8 9 10 11 12 13 14 15 16 17
000
FTUS41 KRNK 242320
TAFBCB
TAF
KBCB 242320Z 2500/2524 29007KT P6SM SCT060
     FM251300 30006KT P6SM SCT100
     FM251800 29010G20KT P6SM SCT045
     FM252300 30006KT P6SM FEW250=

USA.gov is the U.S. government's official web portal to all federal, state and local government web resources and services.